Time;durP1;ratioP1;P1;durP2;ratioP2;P2;SDS_P1;SDS_P2;PMS_P1;PMS_P2;Temp;Humidity;BMP_temperature;BMP_pressure;BME280_temperature;BME280_humidity;BME280_pressure;Samples;Min_cycle;Max_cycle;Signal;HPM_P1;HPM_P2
2022/02/19 00:02:11;;;;;;;2.33;1.27;;;;;;;-0.62;60.37;96678.22;5094352;28;20027;-69
2022/02/19 00:04:37;;;;;;;3.80;1.00;;;;;;;-0.74;60.67;96681.53;5094290;28;20023;-69
2022/02/19 00:07:04;;;;;;;5.88;1.33;;;;;;;-0.76;60.31;96680.66;5094139;28;20334;-69
2022/02/19 00:09:29;;;;;;;1.85;0.90;;;;;;;-0.82;60.41;96693.44;5094344;28;20069;-69
2022/02/19 00:11:55;;;;;;;7.97;1.23;;;;;;;-0.92;60.90;96690.78;5094164;28;20028;-69
2022/02/19 00:14:21;;;;;;;1.95;1.13;;;;;;;-0.89;60.68;96684.81;5094019;28;20424;-69
2022/02/19 00:16:46;;;;;;;3.10;1.30;;;;;;;-0.99;61.30;96677.88;5093974;28;20017;-69
2022/02/19 00:19:12;;;;;;;4.28;1.25;;;;;;;-0.94;61.68;96674.50;5093878;28;20128;-69
2022/02/19 00:21:37;;;;;;;7.75;1.20;;;;;;;-0.93;60.87;96683.06;5094031;28;20139;-69
2022/02/19 00:24:03;;;;;;;2.15;0.98;;;;;;;-1.03;60.63;96679.53;5093942;28;20028;-69
2022/02/19 00:26:29;;;;;;;4.65;1.48;;;;;;;-1.05;61.55;96682.09;5094022;28;20030;-69
2022/02/19 00:28:55;;;;;;;2.88;1.25;;;;;;;-1.04;61.62;96681.25;5093752;28;20028;-69
2022/02/19 00:31:20;;;;;;;3.28;1.00;;;;;;;-1.05;61.66;96679.50;5093839;28;20028;-69
2022/02/19 00:33:46;;;;;;;4.75;1.33;;;;;;;-1.12;62.05;96672.59;5093843;28;20095;-69
2022/02/19 00:36:12;;;;;;;3.63;1.25;;;;;;;-1.12;62.50;96667.47;5075469;28;20077;-69
2022/02/19 00:38:37;;;;;;;3.05;1.30;;;;;;;-1.08;62.56;96655.53;5093664;28;20020;-69
2022/02/19 00:41:03;;;;;;;4.70;1.30;;;;;;;-1.08;62.18;96645.25;5093631;28;20074;-69
2022/02/19 00:43:29;;;;;;;5.55;1.10;;;;;;;-1.11;62.11;96650.34;5093676;28;20031;-69
2022/02/19 00:45:56;;;;;;;4.20;1.50;;;;;;;-1.12;62.54;96644.34;5093496;28;20013;-69
2022/02/19 00:48:22;;;;;;;2.95;1.38;;;;;;;-1.05;62.06;96651.25;5093273;28;20020;-69
2022/02/19 00:50:48;;;;;;;3.28;1.40;;;;;;;-1.12;61.81;96653.78;5093203;28;20028;-69
2022/02/19 00:53:14;;;;;;;3.00;1.10;;;;;;;-1.12;62.12;96651.22;5093182;28;20031;-69
2022/02/19 00:55:40;;;;;;;2.38;1.35;;;;;;;-1.07;62.08;96660.69;5093574;28;20020;-69
2022/02/19 00:58:06;;;;;;;5.32;1.17;;;;;;;-1.06;62.09;96659.81;5093296;28;20150;-69
2022/02/19 01:00:32;;;;;;;1.10;1.00;;;;;;;-1.10;61.81;96645.25;5093461;28;20051;-69
2022/02/19 01:02:58;;;;;;;6.22;1.45;;;;;;;-1.21;62.17;96657.97;5093363;28;20020;-69
2022/02/19 01:05:24;;;;;;;2.80;0.93;;;;;;;-1.25;62.33;96650.19;5093306;28;20028;-69
2022/02/19 01:07:52;;;;;;;2.45;1.13;;;;;;;-1.31;62.71;96653.56;5093270;28;20028;-69
2022/02/19 01:10:18;;;;;;;2.40;1.30;;;;;;;-1.44;63.21;96650.84;5075561;28;20438;-69
2022/02/19 01:12:44;;;;;;;8.55;1.80;;;;;;;-1.43;63.03;96651.72;5075330;28;20036;-69
2022/02/19 01:15:11;;;;;;;3.72;1.73;;;;;;;-1.41;63.05;96648.31;5093000;28;20466;-69
2022/02/19 01:17:38;;;;;;;4.35;1.15;;;;;;;-1.30;63.07;96655.28;5093178;28;20030;-69
2022/02/19 01:20:08;;;;;;;3.13;1.20;;;;;;;-1.22;62.77;96647.66;5093003;28;20042;-69
2022/02/19 01:22:35;;;;;;;2.63;1.35;;;;;;;-1.21;62.54;96652.81;5093170;28;20020;-69
2022/02/19 01:25:01;;;;;;;1.67;1.15;;;;;;;-1.14;62.48;96653.75;5093047;28;20367;-69
2022/02/19 01:27:27;;;;;;;4.05;1.65;;;;;;;-1.17;62.33;96659.72;5074920;28;20390;-69
2022/02/19 01:29:53;;;;;;;2.15;1.42;;;;;;;-1.15;62.08;96660.59;5092927;28;20081;-69
2022/02/19 01:32:19;;;;;;;3.03;1.40;;;;;;;-1.12;61.54;96653.78;5093151;28;20077;-69
2022/02/19 01:34:45;;;;;;;2.75;1.40;;;;;;;-1.23;62.39;96663.94;5092917;28;20035;-69
2022/02/19 01:37:10;;;;;;;6.22;2.10;;;;;;;-1.22;62.65;96661.38;5092913;28;20020;-69
2022/02/19 01:39:36;;;;;;;2.40;1.30;;;;;;;-1.15;62.40;96658.03;5092876;28;20020;-69
2022/02/19 01:42:02;;;;;;;2.75;1.55;;;;;;;-1.07;62.24;96663.25;5092951;28;20028;-69
2022/02/19 01:44:39;;;;;;;2.60;1.40;;;;;;;-0.96;62.33;96672.75;5091359;28;20043;-69
2022/02/19 01:47:06;;;;;;;3.40;0.98;;;;;;;-0.97;62.05;96664.19;5092864;28;20021;-69
2022/02/19 01:49:33;;;;;;;12.70;9.32;;;;;;;-0.99;61.78;96663.34;5092691;28;20020;-69
2022/02/19 01:51:58;;;;;;;8.55;3.17;;;;;;;-0.99;62.03;96652.19;5092646;28;20052;-69
2022/02/19 01:54:24;;;;;;;2.60;1.67;;;;;;;-0.99;61.93;96645.34;5092836;28;20059;-69
2022/02/19 01:56:50;;;;;;;7.32;1.42;;;;;;;-1.00;61.50;96663.31;5092738;28;20016;-69
2022/02/19 01:59:16;;;;;;;5.88;2.75;;;;;;;-1.04;61.89;96654.72;5092873;28;20035;-69
2022/02/19 02:01:41;;;;;;;5.57;1.65;;;;;;;-1.12;62.14;96658.91;5092595;28;20028;-69
2022/02/19 02:04:07;;;;;;;8.00;1.70;;;;;;;-1.30;62.50;96656.16;5094597;28;20024;-69
2022/02/19 02:06:33;;;;;;;3.30;1.90;;;;;;;-1.31;62.80;96643.31;5096487;28;20027;-69
2022/02/19 02:09:00;;;;;;;4.43;1.92;;;;;;;-1.39;63.09;96648.34;5096573;28;20024;-69
2022/02/19 02:11:26;;;;;;;5.22;1.90;;;;;;;-1.37;63.66;96650.94;5096448;28;20021;-69
2022/02/19 02:13:51;;;;;;;6.60;2.72;;;;;;;-1.38;63.27;96650.09;5096382;28;20182;-69
2022/02/19 02:16:17;;;;;;;5.35;2.45;;;;;;;-1.40;63.08;96654.34;5096336;28;20047;-69
2022/02/19 02:18:44;;;;;;;3.45;1.60;;;;;;;-1.38;63.04;96654.34;5095834;28;20377;-69
2022/02/19 02:21:10;;;;;;;5.82;2.65;;;;;;;-1.35;63.22;96662.09;5096547;28;20026;-69
2022/02/19 02:23:35;;;;;;;3.53;1.58;;;;;;;-1.36;63.16;96662.94;5096338;28;20012;-69
2022/02/19 02:26:03;;;;;;;2.95;1.38;;;;;;;-1.35;63.19;96662.09;5096240;28;20154;-69
2022/02/19 02:28:28;;;;;;;5.25;2.45;;;;;;;-1.25;63.27;96658.78;5095981;28;20012;-69
2022/02/19 02:30:54;;;;;;;4.57;1.80;;;;;;;-1.27;63.38;96650.19;5096119;28;20033;-69
2022/02/19 02:33:22;;;;;;;3.05;1.15;;;;;;;-1.29;62.81;96649.31;5096043;28;20024;-69
2022/02/19 02:35:51;;;;;;;5.00;2.15;;;;;;;-1.39;63.12;96645.78;5096037;28;20495;-69
2022/02/19 02:38:18;;;;;;;8.13;2.42;;;;;;;-1.34;63.52;96648.41;5095949;28;20541;-69
2022/02/19 02:40:44;;;;;;;5.97;1.67;;;;;;;-1.31;63.45;96649.31;5095974;28;20024;-69
2022/02/19 02:43:10;;;;;;;3.92;1.30;;;;;;;-1.31;62.99;96648.44;5078038;28;20107;-70
2022/02/19 02:45:39;;;;;;;4.03;1.67;;;;;;;-1.33;63.60;96655.28;5077812;28;20024;-69
2022/02/19 02:48:05;;;;;;;4.47;1.73;;;;;;;-1.32;63.49;96652.69;5095736;28;20085;-70
2022/02/19 02:50:30;;;;;;;2.85;1.65;;;;;;;-1.48;63.83;96668.81;5095768;28;20027;-70
2022/02/19 02:52:57;;;;;;;4.95;2.72;;;;;;;-1.57;64.26;96660.13;5095800;28;20030;-70
2022/02/19 02:55:22;;;;;;;6.13;1.80;;;;;;;-1.54;64.19;96678.13;5095758;28;20056;-69
2022/02/19 02:57:48;;;;;;;5.65;2.35;;;;;;;-1.60;64.35;96662.66;5095688;28;20070;-69
2022/02/19 03:00:16;;;;;;;5.50;2.53;;;;;;;-1.59;64.54;96672.09;5095687;28;20534;-69
2022/02/19 03:02:42;;;;;;;3.42;1.85;;;;;;;-1.51;64.61;96672.16;5095558;28;20057;-69
2022/02/19 03:05:10;;;;;;;4.85;1.90;;;;;;;-1.59;64.51;96661.84;5095351;28;20020;-69
2022/02/19 03:07:36;;;;;;;8.27;2.80;;;;;;;-1.71;64.99;96659.97;5095402;28;20025;-69
2022/02/19 03:10:03;;;;;;;5.13;2.78;;;;;;;-1.67;64.99;96676.25;5095399;28;20065;-69
2022/02/19 03:12:29;;;;;;;4.00;1.73;;;;;;;-1.67;65.13;96672.00;5095244;28;20024;-69
2022/02/19 03:14:54;;;;;;;6.47;1.42;;;;;;;-1.62;64.81;96677.19;5094823;28;20544;-69
2022/02/19 03:17:20;;;;;;;4.85;1.30;;;;;;;-1.61;64.62;96666.06;5095166;28;20055;-69
2022/02/19 03:19:47;;;;;;;4.18;1.33;;;;;;;-1.65;64.83;96679.72;5095121;28;20058;-69
2022/02/19 03:22:13;;;;;;;5.35;1.70;;;;;;;-1.66;65.16;96677.97;5095361;28;20067;-69
2022/02/19 03:24:39;;;;;;;3.22;1.25;;;;;;;-1.60;65.33;96678.06;5095197;28;20024;-69
2022/02/19 03:27:05;;;;;;;1.90;1.27;;;;;;;-1.60;65.08;96690.88;5095073;28;20044;-69
2022/02/19 03:29:31;;;;;;;4.50;1.25;;;;;;;-1.58;65.14;96688.34;5094979;28;20410;-69
2022/02/19 03:31:57;;;;;;;4.82;1.30;;;;;;;-1.60;65.11;96692.59;5094979;28;20028;-69
2022/02/19 03:34:23;;;;;;;2.63;1.20;;;;;;;-1.57;65.39;96685.78;5094922;28;20020;-70
2022/02/19 03:36:50;;;;;;;5.47;1.30;;;;;;;-1.48;65.10;96687.59;5094896;28;20051;-70
2022/02/19 03:39:16;;;;;;;2.05;1.20;;;;;;;-1.53;64.92;96700.38;5077033;28;20028;-69
2022/02/19 03:41:42;;;;;;;9.23;1.58;;;;;;;-1.57;65.06;96698.63;5094837;28;20024;-70
2022/02/19 03:44:08;;;;;;;4.07;1.55;;;;;;;-1.62;65.11;96700.28;5094812;28;20016;-69
2022/02/19 03:46:36;;;;;;;4.93;1.30;;;;;;;-1.63;65.33;96705.41;5094681;28;20020;-69
2022/02/19 03:49:02;;;;;;;3.50;1.55;;;;;;;-1.58;64.95;96706.31;5076927;28;20051;-68
2022/02/19 03:51:28;;;;;;;5.88;1.80;;;;;;;-1.52;65.14;96714.09;5094732;28;20095;-69
2022/02/19 03:53:53;;;;;;;3.00;1.33;;;;;;;-1.52;64.82;96711.50;5094603;28;20048;-69
2022/02/19 03:56:19;;;;;;;5.25;1.38;;;;;;;-1.41;64.86;96699.66;5094749;28;20024;-69
2022/02/19 03:58:45;;;;;;;2.90;1.95;;;;;;;-1.35;64.58;96703.16;5094372;28;20030;-69
2022/02/19 04:01:11;;;;;;;4.30;1.65;;;;;;;-1.34;64.66;96710.00;5094386;28;20020;-69
2022/02/19 04:03:37;;;;;;;4.97;1.30;;;;;;;-1.37;64.42;96710.84;5094231;28;20085;-68
2022/02/19 04:06:04;;;;;;;4.43;1.10;;;;;;;-1.41;64.59;96707.38;5094371;28;20082;-70
2022/02/19 04:08:30;;;;;;;3.22;1.52;;;;;;;-1.47;64.60;96697.06;5094116;28;20028;-69
2022/02/19 04:10:55;;;;;;;4.75;1.30;;;;;;;-1.51;64.68;96709.81;5094217;28;20377;-69
2022/02/19 04:13:21;;;;;;;4.63;1.75;;;;;;;-1.51;64.74;96699.56;5094182;28;20035;-69
2022/02/19 04:15:47;;;;;;;5.50;1.52;;;;;;;-1.66;64.83;96688.22;5094159;28;20021;-69
2022/02/19 04:18:12;;;;;;;10.50;1.48;;;;;;;-1.62;65.16;96686.59;5094303;28;20111;-69
2022/02/19 04:20:38;;;;;;;4.38;1.80;;;;;;;-1.62;65.13;96687.47;5093691;28;20075;-69
2022/02/19 04:23:04;;;;;;;5.97;1.60;;;;;;;-1.60;64.81;96674.66;5094092;28;20074;-69
2022/02/19 04:25:30;;;;;;;1.83;0.95;;;;;;;-1.59;64.74;96676.34;5093867;28;20052;-69
2022/02/19 04:28:00;;;;;;;3.00;1.25;;;;;;;-1.61;64.60;96671.22;5093469;28;20433;-69
2022/02/19 04:30:26;;;;;;;4.60;1.25;;;;;;;-1.60;64.68;96675.47;5076486;28;20036;-69
2022/02/19 04:32:56;;;;;;;6.47;1.13;;;;;;;-1.70;65.33;96682.22;5093859;28;20047;-70
2022/02/19 04:35:23;;;;;;;5.65;1.42;;;;;;;-1.75;64.92;96681.28;5093919;28;20031;-70
2022/02/19 04:37:49;;;;;;;2.03;1.20;;;;;;;-1.75;65.34;96676.16;5093762;28;20456;-69
2022/02/19 04:40:14;;;;;;;1.67;1.10;;;;;;;-1.77;65.45;96675.28;5093756;28;20107;-69
2022/02/19 04:42:41;;;;;;;4.97;1.35;;;;;;;-1.73;65.26;96674.47;5093632;28;20020;-69
2022/02/19 04:45:07;;;;;;;10.15;1.98;;;;;;;-1.75;65.21;96677.88;5093659;28;20020;-69
2022/02/19 04:47:34;;;;;;;3.15;1.20;;;;;;;-1.72;65.33;96686.47;5093564;28;20024;-69
2022/02/19 04:50:00;;;;;;;6.20;1.38;;;;;;;-1.73;65.46;96684.75;5093520;28;20035;-69
2022/02/19 04:52:25;;;;;;;2.50;1.08;;;;;;;-1.74;65.71;96682.16;5093740;28;20527;-69
2022/02/19 04:54:51;;;;;;;4.93;1.52;;;;;;;-1.73;65.94;96687.31;5093501;28;20012;-69
2022/02/19 04:57:16;;;;;;;6.85;1.30;;;;;;;-1.72;65.63;96680.47;5093353;28;20074;-69
2022/02/19 04:59:42;;;;;;;5.82;1.35;;;;;;;-1.80;66.39;96678.66;5093405;28;20024;-69
2022/02/19 05:02:08;;;;;;;2.97;1.60;;;;;;;-1.77;66.51;96677.84;5093284;28;20465;-69
2022/02/19 05:04:33;;;;;;;3.25;1.10;;;;;;;-1.70;66.40;96684.78;5093325;28;20020;-69
2022/02/19 05:06:59;;;;;;;4.68;1.88;;;;;;;-1.63;66.13;96682.31;5093164;28;20092;-69
2022/02/19 05:09:24;;;;;;;5.82;2.05;;;;;;;-1.56;66.00;96684.94;5093161;28;20024;-69
2022/02/19 05:11:50;;;;;;;9.18;2.17;;;;;;;-1.59;66.19;96695.19;5093212;28;20416;-70
2022/02/19 05:14:15;;;;;;;7.80;3.30;;;;;;;-1.50;66.17;96701.28;5093239;28;20059;-69
2022/02/19 05:16:41;;;;;;;20.60;7.10;;;;;;;-1.41;65.77;96709.09;5093220;28;20358;-69
2022/02/19 05:19:06;;;;;;;8.13;2.92;;;;;;;-1.33;65.76;96709.19;5092783;28;20448;-70
2022/02/19 05:21:33;;;;;;;9.35;1.98;;;;;;;-1.32;65.35;96718.59;5093124;28;20027;-69
2022/02/19 05:23:59;;;;;;;3.88;1.13;;;;;;;-1.35;65.49;96722.00;5093252;28;20051;-69
2022/02/19 05:26:24;;;;;;;4.53;1.52;;;;;;;-1.34;65.59;96723.72;5093092;28;20471;-69
2022/02/19 05:28:51;;;;;;;3.63;2.03;;;;;;;-1.31;65.02;96720.31;5092877;28;20469;-69
2022/02/19 05:31:16;;;;;;;17.50;3.95;;;;;;;-1.28;65.43;96726.38;5074928;28;20111;-69
2022/02/19 05:33:42;;;;;;;6.10;2.67;;;;;;;-1.22;65.43;96730.72;5092900;28;20456;-70
2022/02/19 05:36:07;;;;;;;2.78;1.48;;;;;;;-1.20;65.60;96730.72;5092953;28;20020;-69
2022/02/19 05:38:33;;;;;;;8.90;2.38;;;;;;;-1.13;65.28;96726.50;5095652;28;20078;-69
2022/02/19 05:40:59;;;;;;;7.45;2.50;;;;;;;-1.08;65.60;96732.56;5097167;28;20020;-69
2022/02/19 05:43:25;;;;;;;2.65;1.65;;;;;;;-1.03;65.01;96733.47;5097005;28;20107;-69
2022/02/19 05:45:50;;;;;;;2.83;1.77;;;;;;;-1.05;64.68;96740.31;5097096;28;20027;-69
2022/02/19 05:48:16;;;;;;;6.22;3.25;;;;;;;-0.86;65.80;96740.50;5096891;28;20020;-69
2022/02/19 05:50:44;;;;;;;6.65;2.47;;;;;;;0.44;63.31;96744.94;5096966;28;20064;-70
2022/02/19 05:53:11;;;;;;;4.47;1.23;;;;;;;2.11;57.41;96732.44;5096840;28;20016;-70
2022/02/19 05:55:36;;;;;;;2.65;1.15;;;;;;;3.85;53.29;96735.09;5096846;28;20043;-70
2022/02/19 05:58:02;;;;;;;5.15;1.33;;;;;;;5.52;48.18;96730.59;5096861;28;20474;-70
2022/02/19 06:00:28;;;;;;;4.60;2.00;;;;;;;7.07;44.05;96723.56;5096777;28;20069;-70
2022/02/19 06:02:54;;;;;;;3.28;1.40;;;;;;;8.51;41.49;96723.66;5096701;28;20034;-70
2022/02/19 06:05:19;;;;;;;1.95;0.80;;;;;;;9.64;38.86;96731.81;5096704;28;20032;-70
2022/02/19 06:07:45;;;;;;;4.93;1.27;;;;;;;10.69;36.60;96737.09;5096726;28;20051;-70
2022/02/19 06:10:12;;;;;;;4.85;1.85;;;;;;;11.69;33.75;96743.91;5096499;28;20024;-70
2022/02/19 06:12:37;;;;;;;4.32;1.38;;;;;;;12.57;33.00;96745.66;5096641;28;20088;-70
2022/02/19 06:15:03;;;;;;;4.10;1.35;;;;;;;13.50;31.55;96743.34;5096782;28;20112;-70
2022/02/19 06:17:29;;;;;;;3.53;1.27;;;;;;;14.15;28.87;96745.50;5096664;28;20020;-71
2022/02/19 06:19:55;;;;;;;1.88;1.15;;;;;;;15.09;28.65;96732.94;5096366;28;20514;-70
2022/02/19 06:22:20;;;;;;;3.78;1.48;;;;;;;16.17;27.60;96735.00;5096621;28;20022;-70
2022/02/19 06:24:46;;;;;;;5.28;1.50;;;;;;;17.05;26.86;96736.88;5096294;28;20466;-70
2022/02/19 06:27:12;;;;;;;2.97;1.58;;;;;;;17.58;25.59;96739.88;5078308;28;20478;-70
2022/02/19 06:29:37;;;;;;;2.55;1.40;;;;;;;17.91;25.13;96739.50;5096273;28;20477;-70
2022/02/19 06:32:03;;;;;;;2.85;1.58;;;;;;;18.18;24.16;96743.13;5096414;28;20024;-70
2022/02/19 06:34:29;;;;;;;3.25;1.38;;;;;;;18.51;23.87;96744.47;5096121;28;20420;-70
2022/02/19 06:36:55;;;;;;;3.40;1.73;;;;;;;19.05;23.12;96749.72;5096106;28;20023;-71
2022/02/19 06:39:21;;;;;;;4.22;2.10;;;;;;;18.16;23.96;96745.03;5096079;28;20020;-70
2022/02/19 06:41:47;;;;;;;4.43;2.30;;;;;;;18.65;23.89;96746.22;5096138;28;20111;-70
2022/02/19 06:44:12;;;;;;;3.83;2.55;;;;;;;19.33;22.79;96742.53;5095973;28;20020;-70
2022/02/19 06:46:38;;;;;;;7.95;3.55;;;;;;;19.81;22.28;96755.03;5095844;28;20489;-71
2022/02/19 06:49:04;;;;;;;4.60;3.28;;;;;;;20.23;21.56;96745.91;5095106;28;20032;-71
2022/02/19 06:51:30;;;;;;;8.63;4.00;;;;;;;20.94;21.44;96754.81;5096003;28;20470;-71
2022/02/19 06:53:56;;;;;;;8.40;4.68;;;;;;;21.25;20.85;96755.09;5096004;28;20020;-71
2022/02/19 06:56:26;;;;;;;4.72;3.55;;;;;;;21.50;20.56;96752.31;5095898;28;20020;-71
2022/02/19 06:58:58;;;;;;;8.40;3.50;;;;;;;21.41;20.01;96760.06;5095810;28;20020;-71
2022/02/19 07:01:27;;;;;;;10.68;4.38;;;;;;;22.08;19.06;96751.28;5095755;28;20028;-71
2022/02/19 07:03:58;;;;;;;6.93;2.88;;;;;;;21.88;20.04;96751.06;5095737;28;20481;-71
2022/02/19 07:06:24;;;;;;;5.60;2.47;;;;;;;21.48;19.86;96755.09;5095648;28;20059;-71
2022/02/19 07:08:50;;;;;;;6.60;2.70;;;;;;;21.63;19.93;96760.16;5095587;28;20422;-71
2022/02/19 07:11:16;;;;;;;8.13;2.55;;;;;;;;;;5095499;28;20026;-71
2022/02/19 07:13:42;;;;;;;3.45;2.13;;;;;;;22.59;17.92;96755.09;5095400;28;20028;-71
2022/02/19 07:16:08;;;;;;;4.57;2.45;;;;;;;22.47;18.26;96759.63;5095345;28;20028;-71
2022/02/19 07:18:34;;;;;;;7.10;2.30;;;;;;;22.80;18.17;96750.75;5095434;28;20446;-71
2022/02/19 07:21:01;;;;;;;5.72;1.92;;;;;;;23.87;16.75;96750.53;5095103;28;20382;-70
2022/02/19 07:23:27;;;;;;;5.40;2.28;;;;;;;23.31;17.14;96746.41;5095162;28;20043;-70
2022/02/19 07:25:53;;;;;;;6.68;2.25;;;;;;;23.93;17.01;96750.81;5095244;28;20059;-71
2022/02/19 07:28:19;;;;;;;3.72;2.08;;;;;;;23.72;16.72;96751.75;5095137;28;20031;-71
2022/02/19 07:30:44;;;;;;;7.53;2.42;;;;;;;22.87;17.17;96749.25;5095046;28;20020;-70
2022/02/19 07:33:11;;;;;;;5.65;2.60;;;;;;;22.47;17.81;96740.97;5095190;28;20423;-70
2022/02/19 07:35:37;;;;;;;7.03;2.65;;;;;;;23.03;17.56;96743.44;5095015;28;20032;-70
2022/02/19 07:38:04;;;;;;;6.38;2.85;;;;;;;24.13;16.25;96737.53;5095066;28;20035;-70
2022/02/19 07:40:30;;;;;;;8.02;3.03;;;;;;;24.00;16.74;96740.44;5094841;28;20024;-71
2022/02/19 07:42:56;;;;;;;4.57;2.97;;;;;;;23.57;16.91;96729.09;5094892;28;20028;-71
2022/02/19 07:45:22;;;;;;;4.75;2.30;;;;;;;23.24;17.53;96734.56;5094880;28;20031;-71
2022/02/19 07:47:48;;;;;;;7.43;2.83;;;;;;;23.76;17.45;96736.31;5094743;28;20358;-71
2022/02/19 07:58:28;;;;;;;4.78;2.15;;;;;;;24.54;16.18;96731.22;5094971;28;20035;-70
2022/02/19 08:01:03;;;;;;;4.28;2.50;;;;;;;25.08;15.48;96728.03;5093428;28;20041;-70
2022/02/19 08:03:30;;;;;;;5.20;1.80;;;;;;;24.20;15.25;96724.47;5094551;28;20566;-70
2022/02/19 08:05:56;;;;;;;5.45;2.38;;;;;;;24.17;16.00;96727.44;5094513;28;20393;-70
2022/02/19 08:08:22;;;;;;;7.95;2.20;;;;;;;24.05;16.17;96738.19;5094464;28;20032;-70
2022/02/19 08:10:48;;;;;;;3.42;2.28;;;;;;;23.52;15.69;96745.53;5094286;28;20114;-70
2022/02/19 08:13:16;;;;;;;7.45;2.15;;;;;;;22.29;17.58;96754.00;5094238;28;20054;-70
2022/02/19 08:15:43;;;;;;;5.45;2.45;;;;;;;20.65;19.31;96755.22;5094329;28;20030;-70
2022/02/19 08:18:10;;;;;;;4.80;2.03;;;;;;;20.66;18.74;96756.91;5094066;28;20035;-70
2022/02/19 08:20:38;;;;;;;5.00;2.20;;;;;;;20.41;19.72;96762.25;5075825;28;20402;-70
2022/02/19 08:23:05;;;;;;;4.97;2.70;;;;;;;20.02;18.87;96750.97;5094129;28;20412;-70
2022/02/19 08:25:32;;;;;;;7.38;2.95;;;;;;;18.29;21.31;96753.88;5094103;28;20028;-70
2022/02/19 08:27:58;;;;;;;9.15;2.92;;;;;;;17.58;23.19;96743.34;5093950;28;20020;-70
2022/02/19 08:30:25;;;;;;;4.32;2.67;;;;;;;16.73;23.00;96749.38;5093850;28;20510;-70
2022/02/19 08:32:51;;;;;;;7.50;2.13;;;;;;;16.68;22.94;96745.22;5093944;28;20020;-70
2022/02/19 08:35:17;;;;;;;3.90;2.05;;;;;;;16.40;24.28;96752.13;5094026;28;20535;-70
2022/02/19 08:37:43;;;;;;;5.03;2.35;;;;;;;15.84;24.82;96744.72;5093842;28;20550;-70
2022/02/19 08:40:11;;;;;;;4.22;2.45;;;;;;;15.69;24.51;96738.53;5075635;28;20382;-70
2022/02/19 08:42:38;;;;;;;6.60;2.40;;;;;;;14.92;26.03;96746.97;5093741;28;20039;-70
2022/02/19 08:45:07;;;;;;;4.22;2.42;;;;;;;14.42;26.29;96744.19;5093631;28;20024;-70
2022/02/19 08:47:34;;;;;;;6.47;2.50;;;;;;;14.36;26.34;96740.09;5093593;28;20032;-70
2022/02/19 08:50:04;;;;;;;6.57;2.60;;;;;;;13.94;26.94;96741.31;5093500;28;20032;-70
2022/02/19 08:52:31;;;;;;;4.75;2.85;;;;;;;13.97;27.80;96746.41;5093498;28;20107;-70
2022/02/19 08:54:57;;;;;;;5.40;2.40;;;;;;;14.28;26.92;96752.81;5093446;28;20028;-70
2022/02/19 08:57:23;;;;;;;5.00;2.28;;;;;;;14.12;27.68;96740.41;5093450;28;20381;-70
2022/02/19 08:59:50;;;;;;;7.63;2.17;;;;;;;13.89;27.88;96744.16;5093540;28;20012;-70
2022/02/19 09:02:17;;;;;;;4.18;2.05;;;;;;;13.93;28.43;96736.97;5093469;28;20381;-70
2022/02/19 09:04:42;;;;;;;4.57;2.40;;;;;;;13.94;27.95;96739.50;5093389;28;20012;-70
2022/02/19 09:07:10;;;;;;;6.35;2.15;;;;;;;14.12;27.87;96748.28;5093340;28;20028;-70
2022/02/19 09:09:36;;;;;;;4.28;2.38;;;;;;;14.15;27.92;96739.41;5093310;28;20031;-70
2022/02/19 09:12:05;;;;;;;6.25;2.40;;;;;;;13.62;28.62;96740.16;5092991;28;20035;-70
2022/02/19 09:14:31;;;;;;;5.15;2.50;;;;;;;13.65;28.46;96747.03;5093311;28;20118;-70
2022/02/19 09:16:57;;;;;;;11.23;2.30;;;;;;;13.96;28.28;96742.94;5093252;28;20024;-70
2022/02/19 09:19:23;;;;;;;4.43;2.03;;;;;;;14.11;28.30;96741.31;5093039;28;20042;-70
2022/02/19 09:21:49;;;;;;;6.35;2.40;;;;;;;14.23;28.56;96739.88;5093242;28;20032;-70
2022/02/19 09:24:15;;;;;;;3.90;2.00;;;;;;;14.30;27.60;96748.28;5093142;28;20020;-70
2022/02/19 09:26:41;;;;;;;6.68;2.45;;;;;;;14.34;28.43;96749.00;5093153;28;20077;-70
2022/02/19 09:29:07;;;;;;;6.57;2.10;;;;;;;14.09;27.90;96742.34;5093076;28;20017;-70
2022/02/19 09:31:33;;;;;;;4.28;1.95;;;;;;;14.16;28.12;96738.47;5093154;28;20086;-70
2022/02/19 09:33:58;;;;;;;3.03;1.63;;;;;;;14.36;27.83;96736.63;5093055;28;20077;-70
2022/02/19 09:36:24;;;;;;;4.53;2.20;;;;;;;14.07;27.20;96739.78;5093196;28;20016;-69
2022/02/19 09:38:50;;;;;;;5.97;2.03;;;;;;;14.05;27.32;96739.00;5093236;28;20022;-70
2022/02/19 09:41:16;;;;;;;2.75;1.77;;;;;;;14.34;27.84;96744.59;5092986;28;20106;-70
2022/02/19 09:43:42;;;;;;;4.82;2.03;;;;;;;14.19;28.07;96732.22;5092985;28;20024;-70
2022/02/19 09:46:08;;;;;;;4.68;2.30;;;;;;;14.08;27.91;96735.34;5092921;28;20020;-70
2022/02/19 09:48:34;;;;;;;5.57;2.13;;;;;;;14.43;28.14;96730.13;5092965;28;20024;-71
2022/02/19 09:51:01;;;;;;;4.30;2.22;;;;;;;14.29;26.93;96725.56;5093006;28;20028;-70
2022/02/19 09:53:28;;;;;;;2.95;1.80;;;;;;;14.13;27.77;96726.34;5092990;28;20032;-71
2022/02/19 09:55:55;;;;;;;4.85;1.98;;;;;;;14.00;28.64;96720.81;5092867;28;20099;-70
2022/02/19 09:58:22;;;;;;;3.75;1.92;;;;;;;13.83;27.89;96729.53;5092860;28;20028;-71
2022/02/19 10:00:49;;;;;;;7.03;2.05;;;;;;;13.93;28.18;96735.19;5092781;28;20107;-70
2022/02/19 10:03:20;;;;;;;7.70;2.03;;;;;;;13.97;27.95;96723.59;5092944;28;20020;-70
2022/02/19 10:05:46;;;;;;;4.72;2.05;;;;;;;14.02;29.46;96737.38;5092776;28;20028;-70
2022/02/19 10:08:12;;;;;;;4.50;2.15;;;;;;;14.09;29.05;96721.31;5092661;28;20154;-70
2022/02/19 10:10:48;;;;;;;4.05;1.67;;;;;;;14.11;29.12;96728.19;5092846;28;20024;-70
2022/02/19 10:13:36;;;;;;;4.55;1.90;;;;;;;14.12;28.08;96721.97;5092920;28;20024;-70
2022/02/19 10:16:07;;;;;;;3.50;1.85;;;;;;;14.22;27.44;96725.03;5092815;28;20489;-70
2022/02/19 10:18:43;;;;;;;2.83;1.60;;;;;;;14.27;29.26;96720.38;5092603;28;20093;-70
2022/02/19 10:21:14;;;;;;;5.45;2.30;;;;;;;14.26;27.84;96718.69;5092683;28;20044;-70
2022/02/19 10:23:41;;;;;;;;;;;;;;;14.36;27.93;96705.88;5093074;28;20047;-70
2022/02/19 10:26:08;;;;;;;4.13;1.92;;;;;;;14.41;28.19;96705.66;5096024;28;19911;-70
2022/02/19 10:28:35;;;;;;;4.90;1.98;;;;;;;14.37;28.45;96693.59;5078340;28;20012;-70
2022/02/19 10:31:30;;;;;;;4.55;2.10;;;;;;;14.32;28.68;96696.47;5096204;28;20104;-70
2022/02/19 10:34:07;;;;;;;6.40;2.00;;;;;;;14.22;28.75;96692.59;5079321;28;20043;-70
2022/02/19 10:36:48;;;;;;;3.85;1.88;;;;;;;14.27;29.10;96693.22;5096295;28;20031;-70
2022/02/19 10:39:14;;;;;;;;;;;;;;;14.20;28.74;96684.78;5096559;28;20058;-70
2022/02/19 10:41:41;;;;;;;7.35;1.90;;;;;;;13.99;27.85;96695.44;5096108;28;20308;-70
2022/02/19 10:44:32;;;;;;;5.00;1.95;;;;;;;13.98;29.29;96688.50;5096064;28;20024;-70
2022/02/19 10:47:20;;;;;;;4.22;1.80;;;;;;;14.07;29.77;96696.84;5096026;28;20028;-70
2022/02/19 10:50:05;;;;;;;4.93;1.92;;;;;;;14.11;29.00;96688.72;5095953;28;20035;-70
2022/02/19 10:52:31;;;;;;;7.05;2.30;;;;;;;14.17;29.39;96687.56;5096010;28;20028;-70
2022/02/19 10:55:10;;;;;;;8.85;2.33;;;;;;;14.28;28.77;96687.88;5076932;28;20096;-70
2022/02/19 10:57:41;;;;;;;5.78;1.58;;;;;;;14.42;29.22;96685.47;5094994;28;20036;-60
2022/02/19 11:00:19;;;;;;;5.43;2.20;;;;;;;14.38;29.05;96676.88;5095790;28;20024;-58
2022/02/19 11:02:47;;;;;;;8.57;2.10;;;;;;;14.24;28.54;96674.97;5095302;28;20047;-58
2022/02/19 11:05:14;;;;;;;4.03;1.85;;;;;;;14.07;28.91;96660.88;5095537;28;20054;-58
2022/02/19 11:07:42;;;;;;;3.70;1.90;;;;;;;14.06;29.16;96659.16;5095283;28;20028;-58
2022/02/19 11:10:11;;;;;;;7.03;2.20;;;;;;;14.03;28.98;96660.16;5095569;28;20024;-58
2022/02/19 11:12:37;;;;;;;4.95;2.33;;;;;;;14.18;28.82;96648.97;5077577;28;20031;-58
2022/02/19 11:15:04;;;;;;;4.60;2.17;;;;;;;14.32;29.71;96651.72;5095568;28;20063;-58
2022/02/19 11:17:30;;;;;;;4.93;2.35;;;;;;;14.45;28.58;96654.56;5095102;28;20024;-58
2022/02/19 11:20:04;;;;;;;6.07;2.17;;;;;;;14.44;29.35;96646.75;5095124;28;20105;-58
2022/02/19 11:22:32;;;;;;;5.25;2.42;;;;;;;14.47;29.02;96643.97;5095317;28;20466;-58
2022/02/19 11:25:00;;;;;;;6.75;2.50;;;;;;;14.44;29.32;96636.22;5095241;28;20477;-58
2022/02/19 11:27:31;;;;;;;5.57;2.30;;;;;;;14.41;28.18;96629.34;5094826;28;20059;-58
2022/02/19 11:30:02;;;;;;;9.02;2.67;;;;;;;14.23;29.26;96639.03;5095098;28;20020;-58
2022/02/19 11:32:28;;;;;;;;;;;;;;;14.06;29.82;96629.41;5095130;28;20111;-57
2022/02/19 11:34:54;;;;;;;11.32;3.13;;;;;;;14.10;29.15;96623.03;5076472;28;19912;-61
2022/02/19 11:37:21;;;;;;;7.22;3.25;;;;;;;14.13;28.94;96636.91;5093235;28;20020;-62
2022/02/19 11:40:07;;;;;;;8.43;3.80;;;;;;;13.88;29.80;96624.97;5094203;28;20115;-62
2022/02/19 11:42:38;;;;;;;7.60;3.92;;;;;;;14.08;30.02;96620.50;5094912;28;20016;-62